createdAt,value
2019-05-02T22:01:27.753Z,1003.15
2019-05-02T22:02:03.233Z,1003.14
2019-05-02T22:02:38.595Z,1003.14
2019-05-02T22:03:13.891Z,1003.14
2019-05-02T22:03:49.172Z,1003.13
2019-05-02T22:04:24.576Z,1003.15
2019-05-02T22:05:02.094Z,1003.18
2019-05-02T22:05:35.765Z,1003.17
2019-05-02T22:06:12.187Z,1003.17
2019-05-02T22:06:46.688Z,1003.17
2019-05-02T22:07:22.041Z,1003.20
2019-05-02T22:07:57.352Z,1003.18
2019-05-02T22:08:32.521Z,1003.17
2019-05-02T22:09:07.903Z,1003.23
2019-05-02T22:09:43.171Z,1003.25
2019-05-02T22:10:18.176Z,1003.21
2019-05-02T22:10:53.347Z,1003.20
2019-05-02T22:11:28.452Z,1003.23
2019-05-02T22:12:03.939Z,1003.22
2019-05-02T22:12:39.334Z,1003.18
2019-05-02T22:13:14.878Z,1003.22
2019-05-02T22:13:51.675Z,1003.23
2019-05-02T22:14:25.663Z,1003.25
2019-05-02T22:15:02.335Z,1003.21
2019-05-02T22:15:36.058Z,1003.26
2019-05-02T22:16:12.866Z,1003.28
2019-05-02T22:16:46.639Z,1003.29
2019-05-02T22:17:22.062Z,1003.25
2019-05-02T22:17:57.255Z,1003.26
2019-05-02T22:18:32.671Z,1003.28
2019-05-02T22:19:07.938Z,1003.31
2019-05-02T22:19:43.152Z,1003.33
2019-05-02T22:20:18.441Z,1003.35
2019-05-02T22:20:54.526Z,1003.34
2019-05-02T22:21:29.807Z,1003.40
2019-05-02T22:22:05.118Z,1003.39
2019-05-02T22:22:42.638Z,1003.39
2019-05-02T22:23:16.033Z,1003.39
2019-05-02T22:23:52.052Z,1003.40
2019-05-02T22:24:26.903Z,1003.40
2019-05-02T22:25:02.357Z,1003.44
2019-05-02T22:25:37.374Z,1003.44
2019-05-02T22:26:12.800Z,1003.40
2019-05-02T22:26:47.657Z,1003.41
2019-05-02T22:27:23.036Z,1003.43
2019-05-02T22:27:58.862Z,1003.48
2019-05-02T22:28:34.028Z,1003.47
2019-05-02T22:29:09.533Z,1003.47
2019-05-02T22:29:44.707Z,1003.44
2019-05-02T22:30:21.473Z,1003.48
2019-05-02T22:30:55.490Z,1003.45
2019-05-02T22:31:32.189Z,1003.47
2019-05-02T22:32:06.316Z,1003.42
2019-05-02T22:32:42.739Z,1003.47
2019-05-02T22:33:17.142Z,1003.47
2019-05-02T22:33:52.799Z,1003.48
2019-05-02T22:34:27.682Z,1003.50
2019-05-02T22:35:03.197Z,1003.46
2019-05-02T22:35:38.877Z,1003.48
2019-05-02T22:36:14.087Z,1003.49
2019-05-02T22:36:49.563Z,1003.48
2019-05-02T22:37:25.085Z,1003.48
2019-05-02T22:38:02.165Z,1003.47
2019-05-02T22:38:35.609Z,1003.47
2019-05-02T22:39:12.559Z,1003.51
2019-05-02T22:39:46.385Z,1003.51
2019-05-02T22:40:21.804Z,1003.53
2019-05-02T22:40:57.377Z,1003.55
2019-05-02T22:41:32.736Z,1003.55
2019-05-02T22:42:08.075Z,1003.58
2019-05-02T22:42:43.372Z,1003.58
2019-05-02T22:43:18.672Z,1003.55
2019-05-02T22:43:54.178Z,1003.56
2019-05-02T22:44:29.560Z,1003.54
2019-05-02T22:45:04.851Z,1003.53
2019-05-02T22:45:41.752Z,1003.56
2019-05-02T22:46:15.670Z,1003.55
2019-05-02T22:46:52.089Z,1003.59
2019-05-02T22:47:26.448Z,1003.58
2019-05-02T22:48:02.589Z,1003.58
2019-05-02T22:48:37.365Z,1003.60
2019-05-02T22:49:14.597Z,1003.58
2019-05-02T22:49:48.292Z,1003.56
2019-05-02T22:50:23.904Z,1003.54
2019-05-02T22:50:59.483Z,1003.55
2019-05-02T22:51:34.783Z,1003.52
2019-05-02T22:52:12.220Z,1003.54
2019-05-02T22:52:45.462Z,1003.55
2019-05-02T22:53:21.585Z,1003.54
2019-05-02T22:53:55.849Z,1003.57
2019-05-02T22:54:33.605Z,1003.55
2019-05-02T22:55:06.173Z,1003.55
2019-05-02T22:55:42.551Z,1003.55
2019-05-02T22:56:16.774Z,1003.55
2019-05-02T22:56:52.206Z,1003.57
2019-05-02T22:57:27.556Z,1003.58
2019-05-02T22:58:02.633Z,1003.57
2019-05-02T22:58:38.340Z,1003.57
2019-05-02T22:59:13.328Z,1003.57
2019-05-02T22:59:48.550Z,1003.57
2019-05-02T23:00:23.924Z,1003.59
2019-05-02T23:00:59.129Z,1003.60
2019-05-02T23:01:34.491Z,1003.58
2019-05-02T23:02:09.581Z,1003.57
2019-05-02T23:02:44.953Z,1003.59
2019-05-02T23:03:21.524Z,1003.58
2019-05-02T23:03:55.674Z,1003.53
2019-05-02T23:04:32.343Z,1003.55
2019-05-02T23:05:06.102Z,1003.53
2019-05-02T23:05:42.140Z,1003.56
2019-05-02T23:06:16.687Z,1003.57
2019-05-02T23:06:52.893Z,1003.60
2019-05-02T23:07:27.379Z,1003.59
2019-05-02T23:08:02.977Z,1003.63
2019-05-02T23:08:38.547Z,1003.63
2019-05-02T23:09:13.643Z,1003.66
2019-05-02T23:09:49.224Z,1003.64
2019-05-02T23:10:24.647Z,1003.65
2019-05-02T23:11:00.035Z,1003.69
2019-05-02T23:11:35.244Z,1003.68
2019-05-02T23:12:13.048Z,1003.68
2019-05-02T23:12:46.496Z,1003.70
2019-05-02T23:13:24.548Z,1003.70
2019-05-02T23:13:57.458Z,1003.71
2019-05-02T23:14:32.744Z,1003.68
2019-05-02T23:15:08.341Z,1003.71
2019-05-02T23:15:43.642Z,1003.69
2019-05-02T23:16:19.135Z,1003.73
2019-05-02T23:16:54.409Z,1003.76
2019-05-02T23:17:29.643Z,1003.76
2019-05-02T23:18:05.104Z,1003.74
2019-05-02T23:18:42.480Z,1003.73
2019-05-02T23:19:15.930Z,1003.75
2019-05-02T23:19:52.781Z,1003.75
2019-05-02T23:20:26.621Z,1003.77
2019-05-02T23:21:02.470Z,1003.73
2019-05-02T23:21:38.063Z,1003.74
2019-05-02T23:22:13.571Z,1003.77
2019-05-02T23:22:48.930Z,1003.81
2019-05-02T23:23:24.639Z,1003.78
2019-05-02T23:24:01.635Z,1003.86
2019-05-02T23:24:38.691Z,1003.77
2019-05-02T23:25:11.622Z,1003.78
2019-05-02T23:25:46.201Z,1003.75
2019-05-02T23:26:22.450Z,1003.78
2019-05-02T23:26:56.715Z,1003.80
2019-05-02T23:27:32.196Z,1003.82
2019-05-02T23:28:07.594Z,1003.81
2019-05-02T23:28:42.888Z,1003.80
2019-05-02T23:29:18.406Z,1003.77
2019-05-02T23:29:53.697Z,1003.79
2019-05-02T23:30:29.107Z,1003.81
2019-05-02T23:31:04.589Z,1003.81
2019-05-02T23:31:42.202Z,1003.83
2019-05-02T23:32:16.043Z,1003.79
2019-05-02T23:32:51.815Z,1003.82
2019-05-02T23:33:26.833Z,1003.80
2019-05-02T23:34:02.165Z,1003.80
2019-05-02T23:34:37.156Z,1003.81
2019-05-02T23:35:13.233Z,1003.79
2019-05-02T23:35:48.199Z,1003.84
2019-05-02T23:36:23.542Z,1003.83
2019-05-02T23:36:59.065Z,1003.82
2019-05-02T23:37:34.176Z,1003.86
2019-05-02T23:38:09.748Z,1003.83
2019-05-02T23:38:44.940Z,1003.82
2019-05-02T23:39:20.152Z,1003.79
2019-05-02T23:39:55.357Z,1003.85
2019-05-02T23:40:30.830Z,1003.85
2019-05-02T23:41:06.436Z,1003.85
2019-05-02T23:41:42.052Z,1003.83
2019-05-02T23:42:17.307Z,1003.86
2019-05-02T23:42:52.686Z,1003.85
2019-05-02T23:43:27.984Z,1003.85
2019-05-02T23:44:03.150Z,1003.85
2019-05-02T23:44:38.370Z,1003.82
2019-05-02T23:45:13.787Z,1003.87
2019-05-02T23:45:49.085Z,1003.83
2019-05-02T23:46:24.451Z,1003.86
2019-05-02T23:46:59.765Z,1003.85
2019-05-02T23:47:34.857Z,1003.86
2019-05-02T23:48:10.293Z,1003.85
2019-05-02T23:48:45.752Z,1003.85
2019-05-02T23:49:21.981Z,1003.84
2019-05-02T23:49:56.354Z,1003.81
2019-05-02T23:50:32.267Z,1003.86
2019-05-02T23:51:07.450Z,1003.82
2019-05-02T23:51:42.946Z,1003.83
2019-05-02T23:52:18.134Z,1003.84
2019-05-02T23:52:53.489Z,1003.84
2019-05-02T23:53:29.063Z,1003.84
2019-05-02T23:54:04.462Z,1003.87
2019-05-02T23:54:49.166Z,1003.84
2019-05-02T23:55:15.369Z,1003.82
2019-05-02T23:55:50.944Z,1003.83
2019-05-02T23:56:26.148Z,1003.82
2019-05-02T23:57:01.518Z,1003.84
2019-05-02T23:57:36.927Z,1003.82
2019-05-02T23:58:12.043Z,1003.85
2019-05-02T23:58:47.524Z,1003.84
2019-05-02T23:59:22.788Z,1003.82
2019-05-02T23:59:57.983Z,1003.87
